sensor_id;sensor_type;location;lat;lon;timestamp;pressure;altitude;pressure_sealevel;temperature;humidity
50430;BME280;36359;41.556;-8.418;2022-10-16T00:01:35;99900.72;;;18.73;100.00
50430;BME280;36359;41.556;-8.418;2022-10-16T00:04:01;99904.09;;;18.69;100.00
50430;BME280;36359;41.556;-8.418;2022-10-16T00:06:30;99908.97;;;18.73;98.93
50430;BME280;36359;41.556;-8.418;2022-10-16T00:08:56;99900.72;;;18.67;100.00
50430;BME280;36359;41.556;-8.418;2022-10-16T00:11:24;99901.38;;;18.62;100.00
50430;BME280;36359;41.556;-8.418;2022-10-16T00:13:54;99900.72;;;18.73;98.51
50430;BME280;36359;41.556;-8.418;2022-10-16T00:16:20;99896.28;;;18.72;99.35
50430;BME280;36359;41.556;-8.418;2022-10-16T00:18:46;99890.56;;;18.67;99.48
50430;BME280;36359;41.556;-8.418;2022-10-16T00:21:18;99887.63;;;18.62;100.00
50430;BME280;36359;41.556;-8.418;2022-10-16T00:23:44;99888.03;;;18.66;99.49
50430;BME280;36359;41.556;-8.418;2022-10-16T00:26:16;99883.59;;;18.65;98.51
50430;BME280;36359;41.556;-8.418;2022-10-16T00:28:42;99891.19;;;18.69;99.57
50430;BME280;36359;41.556;-8.418;2022-10-16T00:31:10;99891.84;;;18.71;97.67
50430;BME280;36359;41.556;-8.418;2022-10-16T00:33:37;99886.34;;;18.71;98.19
50430;BME280;36359;41.556;-8.418;2022-10-16T00:36:04;99880.84;;;18.65;98.90
50430;BME280;36359;41.556;-8.418;2022-10-16T00:38:31;99887.41;;;18.64;98.99
50430;BME280;36359;41.556;-8.418;2022-10-16T00:40:57;99892.25;;;18.61;99.44
50430;BME280;36359;41.556;-8.418;2022-10-16T00:43:48;99884.00;;;18.61;99.56
50430;BME280;36359;41.556;-8.418;2022-10-16T00:46:39;99876.44;;;18.50;100.00
50430;BME280;36359;41.556;-8.418;2022-10-16T00:49:24;99878.31;;;18.63;98.82
50430;BME280;36359;41.556;-8.418;2022-10-16T00:51:53;99875.56;;;18.63;99.54
50430;BME280;36359;41.556;-8.418;2022-10-16T00:54:30;99873.25;;;18.60;100.00
50430;BME280;36359;41.556;-8.418;2022-10-16T00:56:59;99872.41;;;18.59;99.95
50430;BME280;36359;41.556;-8.418;2022-10-16T00:59:34;99866.06;;;18.52;100.00
50430;BME280;36359;41.556;-8.418;2022-10-16T01:02:01;99875.13;;;18.53;100.00
50430;BME280;36359;41.556;-8.418;2022-10-16T01:04:33;99867.78;;;18.53;100.00
50430;BME280;36359;41.556;-8.418;2022-10-16T01:09:55;99869.88;;;18.51;100.00
50430;BME280;36359;41.556;-8.418;2022-10-16T01:15:14;99861.41;;;18.53;100.00
50430;BME280;36359;41.556;-8.418;2022-10-16T01:17:49;99855.72;;;18.48;100.00
50430;BME280;36359;41.556;-8.418;2022-10-16T01:20:28;99845.56;;;18.55;99.76
50430;BME280;36359;41.556;-8.418;2022-10-16T01:28:27;99849.78;;;18.64;99.42
50430;BME280;36359;41.556;-8.418;2022-10-16T01:30:57;99848.94;;;18.77;97.29
50430;BME280;36359;41.556;-8.418;2022-10-16T01:33:30;99853.53;;;18.96;94.89
50430;BME280;36359;41.556;-8.418;2022-10-16T01:36:03;99843.63;;;18.89;96.47
50430;BME280;36359;41.556;-8.418;2022-10-16T01:38:37;99834.13;;;18.84;95.92
50430;BME280;36359;41.556;-8.418;2022-10-16T01:41:09;99839.84;;;18.83;97.07
50430;BME280;36359;41.556;-8.418;2022-10-16T01:43:48;99832.19;;;18.85;96.24
50430;BME280;36359;41.556;-8.418;2022-10-16T01:46:18;99829.69;;;18.83;96.26
50430;BME280;36359;41.556;-8.418;2022-10-16T01:48:46;99818.47;;;18.72;97.44
50430;BME280;36359;41.556;-8.418;2022-10-16T01:51:17;99816.81;;;18.64;98.43
50430;BME280;36359;41.556;-8.418;2022-10-16T01:53:49;99822.28;;;18.64;97.48
50430;BME280;36359;41.556;-8.418;2022-10-16T01:56:18;99817.88;;;18.63;98.02
50430;BME280;36359;41.556;-8.418;2022-10-16T01:58:51;99808.56;;;18.71;96.24
50430;BME280;36359;41.556;-8.418;2022-10-16T02:01:21;99800.53;;;18.76;96.13
50430;BME280;36359;41.556;-8.418;2022-10-16T02:03:50;99801.38;;;18.76;94.95
50430;BME280;36359;41.556;-8.418;2022-10-16T02:06:17;99804.34;;;18.75;95.10
50430;BME280;36359;41.556;-8.418;2022-10-16T02:08:43;99802.63;;;18.80;94.69
50430;BME280;36359;41.556;-8.418;2022-10-16T02:11:09;99796.53;;;18.65;95.55
50430;BME280;36359;41.556;-8.418;2022-10-16T02:13:51;99805.59;;;18.66;95.52
50430;BME280;36359;41.556;-8.418;2022-10-16T02:16:18;99803.50;;;18.61;95.64
50430;BME280;36359;41.556;-8.418;2022-10-16T02:18:44;99809.84;;;18.68;94.91
50430;BME280;36359;41.556;-8.418;2022-10-16T02:21:23;99811.31;;;18.77;94.95
50430;BME280;36359;41.556;-8.418;2022-10-16T02:27:49;99816.63;;;18.59;96.25
50430;BME280;36359;41.556;-8.418;2022-10-16T02:30:13;99813.88;;;18.59;96.44
50430;BME280;36359;41.556;-8.418;2022-10-16T02:32:42;99813.41;;;18.69;95.59
50430;BME280;36359;41.556;-8.418;2022-10-16T02:35:10;99810.25;;;18.65;95.97
50430;BME280;36359;41.556;-8.418;2022-10-16T02:37:38;99810.25;;;18.65;95.37
50430;BME280;36359;41.556;-8.418;2022-10-16T02:40:05;99795.66;;;18.65;95.51
50430;BME280;36359;41.556;-8.418;2022-10-16T02:42:39;99799.28;;;18.58;96.29
50430;BME280;36359;41.556;-8.418;2022-10-16T02:45:07;99792.06;;;18.64;95.07
50430;BME280;36359;41.556;-8.418;2022-10-16T02:47:33;99794.81;;;18.64;94.84
50430;BME280;36359;41.556;-8.418;2022-10-16T02:49:58;99786.16;;;18.80;93.29
50430;BME280;36359;41.556;-8.418;2022-10-16T02:52:24;99790.56;;;18.81;92.85
50430;BME280;36359;41.556;-8.418;2022-10-16T02:54:50;99787.84;;;18.68;94.01
50430;BME280;36359;41.556;-8.418;2022-10-16T02:57:17;99778.53;;;18.69;93.74
50430;BME280;36359;41.556;-8.418;2022-10-16T02:59:43;99776.84;;;18.68;94.04
50430;BME280;36359;41.556;-8.418;2022-10-16T03:02:09;99776.84;;;18.68;93.91
50430;BME280;36359;41.556;-8.418;2022-10-16T03:04:35;99780.22;;;18.70;93.93
50430;BME280;36359;41.556;-8.418;2022-10-16T03:07:01;99783.22;;;18.62;94.80
50430;BME280;36359;41.556;-8.418;2022-10-16T03:09:27;99779.41;;;18.63;94.52
50430;BME280;36359;41.556;-8.418;2022-10-16T03:11:53;99783.88;;;18.51;95.14
50430;BME280;36359;41.556;-8.418;2022-10-16T03:14:18;99773.09;;;18.49;95.24
50430;BME280;36359;41.556;-8.418;2022-10-16T03:16:44;99780.69;;;18.54;95.75
50430;BME280;36359;41.556;-8.418;2022-10-16T03:19:10;99779.00;;;18.53;95.46
50430;BME280;36359;41.556;-8.418;2022-10-16T03:21:36;99775.41;;;18.52;95.94
50430;BME280;36359;41.556;-8.418;2022-10-16T03:24:04;99774.97;;;18.62;94.52
50430;BME280;36359;41.556;-8.418;2022-10-16T03:26:30;99777.75;;;18.49;95.48
50430;BME280;36359;41.556;-8.418;2022-10-16T03:28:56;99772.06;;;18.50;95.27
50430;BME280;36359;41.556;-8.418;2022-10-16T03:31:22;99768.25;;;18.45;95.96
50430;BME280;36359;41.556;-8.418;2022-10-16T03:33:47;99767.63;;;18.43;96.43
50430;BME280;36359;41.556;-8.418;2022-10-16T03:36:13;99770.81;;;18.33;97.39
50430;BME280;36359;41.556;-8.418;2022-10-16T03:38:39;99754.56;;;18.05;98.08
50430;BME280;36359;41.556;-8.418;2022-10-16T03:41:04;99763.63;;;18.25;96.98
50430;BME280;36359;41.556;-8.418;2022-10-16T03:43:30;99755.59;;;18.30;96.56
50430;BME280;36359;41.556;-8.418;2022-10-16T03:45:56;99758.38;;;18.24;96.68
50430;BME280;36359;41.556;-8.418;2022-10-16T03:48:21;99758.81;;;18.21;97.54
50430;BME280;36359;41.556;-8.418;2022-10-16T03:50:47;99753.06;;;18.29;96.75
50430;BME280;36359;41.556;-8.418;2022-10-16T03:53:14;99754.53;;;18.45;95.65
50430;BME280;36359;41.556;-8.418;2022-10-16T03:55:43;99756.59;;;18.49;95.73
50430;BME280;36359;41.556;-8.418;2022-10-16T03:58:09;99756.19;;;18.52;95.57
50430;BME280;36359;41.556;-8.418;2022-10-16T04:00:35;99751.53;;;18.59;94.81
50430;BME280;36359;41.556;-8.418;2022-10-16T04:03:01;99749.84;;;18.52;95.38
50430;BME280;36359;41.556;-8.418;2022-10-16T04:05:27;99744.88;;;18.15;98.70
50430;BME280;36359;41.556;-8.418;2022-10-16T04:07:52;99747.00;;;18.07;99.36
50430;BME280;36359;41.556;-8.418;2022-10-16T04:10:18;99743.59;;;18.18;99.05
50430;BME280;36359;41.556;-8.418;2022-10-16T04:12:44;99747.81;;;18.07;100.00
50430;BME280;36359;41.556;-8.418;2022-10-16T04:15:10;99739.38;;;18.09;100.00
50430;BME280;36359;41.556;-8.418;2022-10-16T04:17:36;99746.53;;;18.23;98.10
50430;BME280;36359;41.556;-8.418;2022-10-16T04:20:02;99738.72;;;18.13;99.87
50430;BME280;36359;41.556;-8.418;2022-10-16T04:22:28;99741.28;;;18.15;100.00
50430;BME280;36359;41.556;-8.418;2022-10-16T04:24:54;99735.16;;;18.13;99.91
50430;BME280;36359;41.556;-8.418;2022-10-16T04:27:20;99739.53;;;18.34;97.71
50430;BME280;36359;41.556;-8.418;2022-10-16T04:29:46;99746.53;;;18.30;97.96
50430;BME280;36359;41.556;-8.418;2022-10-16T04:32:11;99748.03;;;18.19;99.67
50430;BME280;36359;41.556;-8.418;2022-10-16T04:34:39;99743.38;;;18.20;99.29
50430;BME280;36359;41.556;-8.418;2022-10-16T04:37:05;99742.31;;;18.14;99.91
50430;BME280;36359;41.556;-8.418;2022-10-16T04:39:31;99756.25;;;18.32;97.48
50430;BME280;36359;41.556;-8.418;2022-10-16T04:41:56;99766.16;;;18.40;97.06
50430;BME280;36359;41.556;-8.418;2022-10-16T04:44:22;99761.28;;;18.42;96.60
50430;BME280;36359;41.556;-8.418;2022-10-16T04:46:50;99768.47;;;18.43;96.57
50430;BME280;36359;41.556;-8.418;2022-10-16T04:49:16;99769.53;;;18.42;97.17
50430;BME280;36359;41.556;-8.418;2022-10-16T04:51:41;99775.22;;;18.54;95.91
50430;BME280;36359;41.556;-8.418;2022-10-16T04:54:09;99769.72;;;18.54;95.16
50430;BME280;36359;41.556;-8.418;2022-10-16T04:56:35;99775.22;;;18.41;97.26
50430;BME280;36359;41.556;-8.418;2022-10-16T04:59:08;99775.66;;;18.31;98.54
50430;BME280;36359;41.556;-8.418;2022-10-16T05:01:34;99783.69;;;18.39;96.70
50430;BME280;36359;41.556;-8.418;2022-10-16T05:04:00;99773.94;;;18.43;96.27
50430;BME280;36359;41.556;-8.418;2022-10-16T05:06:25;99778.63;;;18.29;98.67
50430;BME280;36359;41.556;-8.418;2022-10-16T05:08:51;99778.19;;;18.46;96.50
50430;BME280;36359;41.556;-8.418;2022-10-16T05:11:17;99780.13;;;18.25;99.13
50430;BME280;36359;41.556;-8.418;2022-10-16T05:13:42;99779.91;;;18.20;99.81
50430;BME280;36359;41.556;-8.418;2022-10-16T05:16:08;99779.06;;;18.33;98.41
50430;BME280;36359;41.556;-8.418;2022-10-16T05:18:34;99779.47;;;18.36;97.62
50430;BME280;36359;41.556;-8.418;2022-10-16T05:20:59;99779.47;;;18.30;98.20
50430;BME280;36359;41.556;-8.418;2022-10-16T05:23:25;99784.09;;;18.43;96.00
50430;BME280;36359;41.556;-8.418;2022-10-16T05:25:55;99791.06;;;18.45;96.38
50430;BME280;36359;41.556;-8.418;2022-10-16T05:28:24;99786.66;;;18.31;98.31
50430;BME280;36359;41.556;-8.418;2022-10-16T05:30:50;99784.13;;;18.36;97.20
50430;BME280;36359;41.556;-8.418;2022-10-16T05:33:16;99779.69;;;18.28;98.32
50430;BME280;36359;41.556;-8.418;2022-10-16T05:35:42;99789.81;;;18.14;98.92
50430;BME280;36359;41.556;-8.418;2022-10-16T05:38:09;99786.88;;;18.16;99.37
50430;BME280;36359;41.556;-8.418;2022-10-16T05:40:34;99798.94;;;18.15;99.78
50430;BME280;36359;41.556;-8.418;2022-10-16T05:43:00;99784.13;;;18.23;98.51
50430;BME280;36359;41.556;-8.418;2022-10-16T05:45:26;99786.66;;;18.31;97.62
50430;BME280;36359;41.556;-8.418;2022-10-16T05:47:52;99796.38;;;18.20;98.73
50430;BME280;36359;41.556;-8.418;2022-10-16T05:50:17;99793.84;;;18.19;98.98
50430;BME280;36359;41.556;-8.418;2022-10-16T05:52:43;99795.31;;;17.88;100.00
50430;BME280;36359;41.556;-8.418;2022-10-16T05:55:09;99797.63;;;18.17;99.22
50430;BME280;36359;41.556;-8.418;2022-10-16T05:57:34;99811.78;;;18.14;98.97
50430;BME280;36359;41.556;-8.418;2022-10-16T06:00:00;99817.91;;;18.23;97.98
50430;BME280;36359;41.556;-8.418;2022-10-16T06:02:27;99808.41;;;18.39;97.23
50430;BME280;36359;41.556;-8.418;2022-10-16T06:04:52;99819.63;;;18.24;97.92
50430;BME280;36359;41.556;-8.418;2022-10-16T06:07:21;99820.66;;;18.23;98.15
50430;BME280;36359;41.556;-8.418;2022-10-16T06:09:51;99822.38;;;18.24;97.31
50430;BME280;36359;41.556;-8.418;2022-10-16T06:12:18;99817.09;;;18.16;97.86
50430;BME280;36359;41.556;-8.418;2022-10-16T06:14:45;99823.19;;;18.38;96.13
50430;BME280;36359;41.556;-8.418;2022-10-16T06:17:13;99831.88;;;18.42;95.56
50430;BME280;36359;41.556;-8.418;2022-10-16T06:19:39;99839.69;;;18.45;95.35
50430;BME280;36359;41.556;-8.418;2022-10-16T06:22:06;99830.19;;;18.27;96.37
50430;BME280;36359;41.556;-8.418;2022-10-16T06:24:32;99820.69;;;18.30;96.72
50430;BME280;36359;41.556;-8.418;2022-10-16T06:26:57;99831.00;;;18.34;96.11
50430;BME280;36359;41.556;-8.418;2022-10-16T06:29:23;99825.97;;;18.18;96.25
50430;BME280;36359;41.556;-8.418;2022-10-16T06:31:49;99826.59;;;18.07;96.75
50430;BME280;36359;41.556;-8.418;2022-10-16T06:34:14;99823.41;;;18.23;95.66
50430;BME280;36359;41.556;-8.418;2022-10-16T06:36:40;99821.53;;;18.10;94.63
50430;BME280;36359;41.556;-8.418;2022-10-16T06:39:06;99817.94;;;18.30;94.72
50430;BME280;36359;41.556;-8.418;2022-10-16T06:41:35;99815.56;;;18.47;93.74
50430;BME280;36359;41.556;-8.418;2022-10-16T06:44:13;99805.22;;;18.42;93.24
50430;BME280;36359;41.556;-8.418;2022-10-16T06:46:39;99809.47;;;18.31;92.80
50430;BME280;36359;41.556;-8.418;2022-10-16T06:49:05;99825.53;;;18.28;93.97
50430;BME280;36359;41.556;-8.418;2022-10-16T06:51:31;99825.94;;;18.31;94.33
50430;BME280;36359;41.556;-8.418;2022-10-16T06:53:59;99824.25;;;18.37;92.51
50430;BME280;36359;41.556;-8.418;2022-10-16T06:56:26;99822.16;;;18.32;92.42
50430;BME280;36359;41.556;-8.418;2022-10-16T06:58:53;99820.63;;;18.50;92.23
50430;BME280;36359;41.556;-8.418;2022-10-16T07:01:21;99820.44;;;18.51;91.83
50430;BME280;36359;41.556;-8.418;2022-10-16T07:03:48;99821.28;;;18.52;91.25
50430;BME280;36359;41.556;-8.418;2022-10-16T07:06:16;99825.50;;;18.48;90.88
50430;BME280;36359;41.556;-8.418;2022-10-16T07:08:45;99823.41;;;18.36;91.66
50430;BME280;36359;41.556;-8.418;2022-10-16T07:11:17;99813.47;;;18.49;91.44
50430;BME280;36359;41.556;-8.418;2022-10-16T07:13:44;99819.94;;;18.68;90.98
50430;BME280;36359;41.556;-8.418;2022-10-16T07:16:16;99818.31;;;18.53;91.02
50430;BME280;36359;41.556;-8.418;2022-10-16T07:18:43;99827.19;;;18.49;90.27
50430;BME280;36359;41.556;-8.418;2022-10-16T07:21:21;99835.84;;;18.46;90.41
50430;BME280;36359;41.556;-8.418;2022-10-16T07:23:54;99840.09;;;18.42;90.79
50430;BME280;36359;41.556;-8.418;2022-10-16T07:26:22;99845.38;;;18.36;91.53
50430;BME280;36359;41.556;-8.418;2022-10-16T07:28:48;99847.47;;;18.34;91.65
50430;BME280;36359;41.556;-8.418;2022-10-16T07:31:15;99846.41;;;18.49;90.89
50430;BME280;36359;41.556;-8.418;2022-10-16T07:33:42;99837.56;;;18.33;90.73
50430;BME280;36359;41.556;-8.418;2022-10-16T07:36:09;99835.22;;;18.50;91.18
50430;BME280;36359;41.556;-8.418;2022-10-16T07:38:35;99831.19;;;18.53;90.58
50430;BME280;36359;41.556;-8.418;2022-10-16T07:41:03;99841.16;;;18.47;89.93
50430;BME280;36359;41.556;-8.418;2022-10-16T07:43:30;99837.31;;;18.55;90.44
50430;BME280;36359;41.556;-8.418;2022-10-16T07:45:56;99844.09;;;18.52;90.07
50430;BME280;36359;41.556;-8.418;2022-10-16T07:48:23;99838.41;;;18.47;90.05
50430;BME280;36359;41.556;-8.418;2022-10-16T07:50:49;99856.13;;;18.51;90.58
50430;BME280;36359;41.556;-8.418;2022-10-16T07:53:15;99843.03;;;18.53;90.20
50430;BME280;36359;41.556;-8.418;2022-10-16T07:55:41;99841.97;;;18.61;89.67
50430;BME280;36359;41.556;-8.418;2022-10-16T07:58:07;99852.13;;;18.54;89.70
50430;BME280;36359;41.556;-8.418;2022-10-16T08:00:33;99852.94;;;18.68;88.40
50430;BME280;36359;41.556;-8.418;2022-10-16T08:03:00;99858.63;;;18.73;88.41
50430;BME280;36359;41.556;-8.418;2022-10-16T08:05:29;99863.13;;;18.74;89.05
50430;BME280;36359;41.556;-8.418;2022-10-16T08:07:55;99856.53;;;18.81;88.00
50430;BME280;36359;41.556;-8.418;2022-10-16T08:10:23;99861.81;;;18.70;88.59
50430;BME280;36359;41.556;-8.418;2022-10-16T08:12:50;99860.38;;;18.74;88.49
50430;BME280;36359;41.556;-8.418;2022-10-16T08:15:16;99864.56;;;18.76;88.69
50430;BME280;36359;41.556;-8.418;2022-10-16T08:17:42;99861.81;;;18.70;89.18
50430;BME280;36359;41.556;-8.418;2022-10-16T08:20:09;99859.28;;;18.81;88.79
50430;BME280;36359;41.556;-8.418;2022-10-16T08:22:34;99857.59;;;18.80;88.42
50430;BME280;36359;41.556;-8.418;2022-10-16T08:25:00;99865.00;;;18.87;88.40
50430;BME280;36359;41.556;-8.418;2022-10-16T08:27:33;99862.25;;;18.87;87.92
50430;BME280;36359;41.556;-8.418;2022-10-16T08:29:59;99864.34;;;18.84;87.72
50430;BME280;36359;41.556;-8.418;2022-10-16T08:32:24;99865.63;;;18.82;87.92
50430;BME280;36359;41.556;-8.418;2022-10-16T08:34:50;99866.88;;;18.93;88.10
50430;BME280;36359;41.556;-8.418;2022-10-16T08:37:16;99871.13;;;18.89;87.34
50430;BME280;36359;41.556;-8.418;2022-10-16T08:39:41;99879.75;;;18.99;87.58
50430;BME280;36359;41.556;-8.418;2022-10-16T08:50:13;99891.53;;;19.19;85.95
50430;BME280;36359;41.556;-8.418;2022-10-16T08:52:41;99899.78;;;19.19;86.17
50430;BME280;36359;41.556;-8.418;2022-10-16T08:55:38;99901.91;;;19.17;85.59
50430;BME280;36359;41.556;-8.418;2022-10-16T08:58:15;99906.97;;;19.27;85.53
50430;BME280;36359;41.556;-8.418;2022-10-16T09:00:42;99894.25;;;19.33;85.83
50430;BME280;36359;41.556;-8.418;2022-10-16T09:14:01;99905.41;;;19.44;84.26
50430;BME280;36359;41.556;-8.418;2022-10-16T09:16:35;99908.16;;;19.38;84.30
50430;BME280;36359;41.556;-8.418;2022-10-16T09:19:11;99908.00;;;19.33;85.17
50430;BME280;36359;41.556;-8.418;2022-10-16T09:21:44;99909.47;;;19.28;85.41
50430;BME280;36359;41.556;-8.418;2022-10-16T09:24:22;99914.78;;;19.30;85.07
50430;BME280;36359;41.556;-8.418;2022-10-16T09:26:49;99909.28;;;19.23;84.86
50430;BME280;36359;41.556;-8.418;2022-10-16T09:29:16;99910.28;;;19.42;84.23
50430;BME280;36359;41.556;-8.418;2022-10-16T09:31:42;99903.97;;;19.28;84.98
50430;BME280;36359;41.556;-8.418;2022-10-16T09:34:45;99906.25;;;19.45;83.85
50430;BME280;36359;41.556;-8.418;2022-10-16T09:37:16;99911.53;;;19.53;83.53
50430;BME280;36359;41.556;-8.418;2022-10-16T09:39:50;99912.81;;;19.44;83.63
50430;BME280;36359;41.556;-8.418;2022-10-16T09:42:18;99904.81;;;19.36;84.68
50430;BME280;36359;41.556;-8.418;2022-10-16T09:44:50;99887.34;;;19.55;83.75
50430;BME280;36359;41.556;-8.418;2022-10-16T09:47:18;99891.38;;;19.59;84.09
50430;BME280;36359;41.556;-8.418;2022-10-16T09:49:53;99894.53;;;19.69;83.99
50430;BME280;36359;41.556;-8.418;2022-10-16T09:52:21;99889.84;;;19.77;82.55
50430;BME280;36359;41.556;-8.418;2022-10-16T09:55:00;99890.50;;;19.72;83.23
50430;BME280;36359;41.556;-8.418;2022-10-16T09:57:27;99889.66;;;19.71;83.33
50430;BME280;36359;41.556;-8.418;2022-10-16T09:59:55;99882.44;;;19.70;83.07
50430;BME280;36359;41.556;-8.418;2022-10-16T10:02:34;99881.38;;;19.71;82.67
50430;BME280;36359;41.556;-8.418;2022-10-16T10:05:01;99881.75;;;19.82;82.39
50430;BME280;36359;41.556;-8.418;2022-10-16T10:07:31;99872.88;;;19.80;81.94
50430;BME280;36359;41.556;-8.418;2022-10-16T10:10:02;99874.13;;;19.84;81.79
50430;BME280;36359;41.556;-8.418;2022-10-16T10:12:30;99870.47;;;19.90;81.75
50430;BME280;36359;41.556;-8.418;2022-10-16T10:15:03;99872.38;;;19.89;81.60
50430;BME280;36359;41.556;-8.418;2022-10-16T10:17:30;99877.06;;;19.89;81.25
50430;BME280;36359;41.556;-8.418;2022-10-16T10:20:25;99882.50;;;19.95;81.25
50430;BME280;36359;41.556;-8.418;2022-10-16T10:22:53;99882.91;;;19.99;81.18
50430;BME280;36359;41.556;-8.418;2022-10-16T10:44:24;99885.97;;;19.84;82.17
50430;BME280;36359;41.556;-8.418;2022-10-16T10:46:50;99880.00;;;19.87;81.59
50430;BME280;36359;41.556;-8.418;2022-10-16T10:49:26;99877.38;;;19.99;81.41
50430;BME280;36359;41.556;-8.418;2022-10-16T11:00:28;99880.22;;;20.17;80.82
50430;BME280;36359;41.556;-8.418;2022-10-16T11:05:56;99884.59;;;20.00;81.13
50430;BME280;36359;41.556;-8.418;2022-10-16T11:08:34;99885.75;;;19.86;81.29
50430;BME280;36359;41.556;-8.418;2022-10-16T11:11:13;99883.25;;;19.78;81.79
50430;BME280;36359;41.556;-8.418;2022-10-16T11:13:56;99891.97;;;19.74;82.08
50430;BME280;36359;41.556;-8.418;2022-10-16T11:16:28;99884.34;;;19.77;82.00
50430;BME280;36359;41.556;-8.418;2022-10-16T11:19:08;99877.56;;;19.72;82.65
50430;BME280;36359;41.556;-8.418;2022-10-16T11:21:58;99884.94;;;19.79;82.54
50430;BME280;36359;41.556;-8.418;2022-10-16T11:24:41;99877.13;;;19.76;82.96
50430;BME280;36359;41.556;-8.418;2022-10-16T11:27:13;99869.06;;;19.81;82.96
50430;BME280;36359;41.556;-8.418;2022-10-16T11:29:58;99872.19;;;19.84;82.41
50430;BME280;36359;41.556;-8.418;2022-10-16T11:32:35;99881.13;;;19.80;82.91
50430;BME280;36359;41.556;-8.418;2022-10-16T11:35:21;99876.22;;;19.82;82.66
50430;BME280;36359;41.556;-8.418;2022-10-16T11:37:49;99868.66;;;19.77;82.75
50430;BME280;36359;41.556;-8.418;2022-10-16T11:42:54;99874.13;;;19.84;83.13
50430;BME280;36359;41.556;-8.418;2022-10-16T11:45:38;99874.31;;;19.82;83.35
50430;BME280;36359;41.556;-8.418;2022-10-16T11:48:14;99870.66;;;19.95;82.99
50430;BME280;36359;41.556;-8.418;2022-10-16T11:50:56;99864.88;;;20.03;82.26
50430;BME280;36359;41.556;-8.418;2022-10-16T11:56:20;99868.25;;;20.05;81.29
50430;BME280;36359;41.556;-8.418;2022-10-16T11:58:57;99863.38;;;20.07;81.96
50430;BME280;36359;41.556;-8.418;2022-10-16T12:06:37;99871.69;;;19.94;83.27
50430;BME280;36359;41.556;-8.418;2022-10-16T12:09:25;99870.22;;;19.98;82.85
50430;BME280;36359;41.556;-8.418;2022-10-16T12:11:51;99865.19;;;19.88;84.38
50430;BME280;36359;41.556;-8.418;2022-10-16T12:14:33;99860.97;;;19.86;84.47
50430;BME280;36359;41.556;-8.418;2022-10-16T12:22:57;99850.81;;;19.86;85.44
50430;BME280;36359;41.556;-8.418;2022-10-16T12:25:27;99853.50;;;19.93;84.37
50430;BME280;36359;41.556;-8.418;2022-10-16T12:28:17;99845.25;;;19.93;83.42
50430;BME280;36359;41.556;-8.418;2022-10-16T12:30:52;99842.28;;;19.94;83.40
50430;BME280;36359;41.556;-8.418;2022-10-16T12:33:22;99839.75;;;19.93;83.35
50430;BME280;36359;41.556;-8.418;2022-10-16T12:35:49;99851.56;;;20.00;83.48
50430;BME280;36359;41.556;-8.418;2022-10-16T12:38:21;99857.94;;;19.94;83.86
50430;BME280;36359;41.556;-8.418;2022-10-16T12:41:05;99866.81;;;19.96;84.57
50430;BME280;36359;41.556;-8.418;2022-10-16T12:43:38;99872.38;;;19.89;84.44
50430;BME280;36359;41.556;-8.418;2022-10-16T12:48:38;99865.78;;;19.52;89.63
50430;BME280;36359;41.556;-8.418;2022-10-16T12:51:33;99860.25;;;19.65;89.50
50430;BME280;36359;41.556;-8.418;2022-10-16T12:54:11;99845.78;;;19.77;89.52
50430;BME280;36359;41.556;-8.418;2022-10-16T13:07:38;99848.56;;;19.77;91.80
50430;BME280;36359;41.556;-8.418;2022-10-16T13:15:34;99846.22;;;19.73;92.71
50430;BME280;36359;41.556;-8.418;2022-10-16T13:18:24;99848.97;;;19.73;91.72
50430;BME280;36359;41.556;-8.418;2022-10-16T13:24:50;99827.66;;;19.62;92.88
50430;BME280;36359;41.556;-8.418;2022-10-16T13:29:20;99826.34;;;19.71;89.74
50430;BME280;36359;41.556;-8.418;2022-10-16T13:31:47;99825.78;;;19.56;93.83
50430;BME280;36359;41.556;-8.418;2022-10-16T13:34:19;99814.94;;;19.61;94.17
50430;BME280;36359;41.556;-8.418;2022-10-16T13:36:51;99818.31;;;19.63;90.40
50430;BME280;36359;41.556;-8.418;2022-10-16T13:39:26;99815.94;;;19.73;90.63
50430;BME280;36359;41.556;-8.418;2022-10-16T13:42:05;99798.41;;;19.61;93.91
50430;BME280;36359;41.556;-8.418;2022-10-16T13:44:39;99812.31;;;19.80;88.25
50430;BME280;36359;41.556;-8.418;2022-10-16T13:47:18;99802.53;;;19.84;89.23
50430;BME280;36359;41.556;-8.418;2022-10-16T13:49:45;99798.72;;;19.85;89.23
50430;BME280;36359;41.556;-8.418;2022-10-16T13:52:21;99802.88;;;19.94;89.08
50430;BME280;36359;41.556;-8.418;2022-10-16T13:54:47;99801.19;;;19.93;87.77
50430;BME280;36359;41.556;-8.418;2022-10-16T13:57:16;99798.28;;;20.13;85.70
50430;BME280;36359;41.556;-8.418;2022-10-16T13:59:43;99804.63;;;20.13;88.31
50430;BME280;36359;41.556;-8.418;2022-10-16T14:04:55;99786.44;;;20.12;85.69
50430;BME280;36359;41.556;-8.418;2022-10-16T14:07:24;99785.97;;;20.15;86.97
50430;BME280;36359;41.556;-8.418;2022-10-16T14:09:52;99787.03;;;20.14;85.93
50430;BME280;36359;41.556;-8.418;2022-10-16T14:12:18;99785.34;;;20.13;86.44
50430;BME280;36359;41.556;-8.418;2022-10-16T14:14:50;99791.31;;;20.10;86.53
50430;BME280;36359;41.556;-8.418;2022-10-16T14:17:23;99781.81;;;20.06;87.19
50430;BME280;36359;41.556;-8.418;2022-10-16T14:19:52;99785.56;;;19.87;89.02
50430;BME280;36359;41.556;-8.418;2022-10-16T14:22:39;99774.16;;;19.83;87.75
50430;BME280;36359;41.556;-8.418;2022-10-16T14:25:29;99772.91;;;19.79;86.94
50430;BME280;36359;41.556;-8.418;2022-10-16T14:30:54;99777.97;;;19.82;88.69
50430;BME280;36359;41.556;-8.418;2022-10-16T14:33:38;99760.69;;;19.75;90.21
50430;BME280;36359;41.556;-8.418;2022-10-16T14:38:39;99758.22;;;19.60;93.04
50430;BME280;36359;41.556;-8.418;2022-10-16T14:41:06;99758.97;;;19.42;95.11
50430;BME280;36359;41.556;-8.418;2022-10-16T14:43:36;99748.09;;;19.54;91.69
50430;BME280;36359;41.556;-8.418;2022-10-16T14:46:06;99753.03;;;19.45;97.76
50430;BME280;36359;41.556;-8.418;2022-10-16T14:48:35;99739.66;;;19.49;94.38
50430;BME280;36359;41.556;-8.418;2022-10-16T14:51:01;99741.91;;;19.59;91.93
50430;BME280;36359;41.556;-8.418;2022-10-16T14:53:26;99745.28;;;19.36;91.92
50430;BME280;36359;41.556;-8.418;2022-10-16T14:55:52;99739.66;;;19.49;94.04
50430;BME280;36359;41.556;-8.418;2022-10-16T14:58:21;99737.09;;;19.54;92.38